Time;durP1;ratioP1;P1;durP2;ratioP2;P2;SDS_P1;SDS_P2;PMS_P1;PMS_P2;Temp;Humidity;BMP_temperature;BMP_pressure;BME280_temperature;BME280_humidity;BME280_pressure;Samples;Min_cycle;Max_cycle;Signal;HPM_P1;HPM_P2
2023/04/09 00:01:43;;;;;;;6.88;6.28;;;;;;;;;;4950557;28;20200;-65
2023/04/09 00:04:12;;;;;;;7.00;6.30;;;;;;;;;;4972422;28;20203;-65
2023/04/09 00:06:42;;;;;;;7.35;6.65;;;;;;;;;;4956957;28;20196;-66
2023/04/09 00:09:10;;;;;;;6.85;6.25;;;;;;;;;;4965899;28;20218;-66
2023/04/09 00:11:38;;;;;;;6.88;6.30;;;;;;;;;;4955941;29;20214;-65
2023/04/09 00:14:06;;;;;;;8.13;7.20;;;;;;;;;;4955789;29;20262;-66
2023/04/09 00:16:35;;;;;;;7.03;6.43;;;;;;;;;;4956285;29;20220;-66
2023/04/09 00:19:03;;;;;;;7.47;6.75;;;;;;;;;;4955589;28;20212;-66
2023/04/09 00:21:31;;;;;;;7.28;5.93;;;;;;;;;;4955862;29;20196;-66
2023/04/09 00:24:00;;;;;;;7.90;7.10;;;;;;;;;;4954498;29;20579;-66
2023/04/09 00:26:29;;;;;;;8.35;6.70;;;;;;;;;;4940116;29;20204;-66
2023/04/09 00:28:57;;;;;;;7.07;6.38;;;;;;;;;;4955484;29;20214;-65
2023/04/09 00:31:25;;;;;;;8.25;7.00;;;;;;;;;;4956715;29;20212;-65
2023/04/09 00:33:54;;;;;;;9.13;6.93;;;;;;;;;;4956810;29;20230;-66
2023/04/09 00:36:22;;;;;;;6.82;6.13;;;;;;;;;;4956655;29;20717;-65
2023/04/09 00:38:52;;;;;;;7.80;7.00;;;;;;;;;;4939479;29;20208;-64
2023/04/09 00:41:22;;;;;;;7.72;7.03;;;;;;;;;;4965519;28;20213;-65
2023/04/09 00:43:50;;;;;;;11.18;6.75;;;;;;;;;;4965166;28;20200;-65
2023/04/09 00:46:18;;;;;;;7.40;6.45;;;;;;;;;;4940203;29;20216;-64
2023/04/09 00:48:46;;;;;;;8.05;6.80;;;;;;;;;;4969295;28;20210;-64
2023/04/09 00:51:15;;;;;;;6.93;6.22;;;;;;;;;;4975075;28;20319;-64
2023/04/09 00:53:43;;;;;;;7.15;6.45;;;;;;;;;;4969658;28;20560;-65
2023/04/09 00:56:12;;;;;;;8.55;6.97;;;;;;;;;;4955992;28;20231;-65
2023/04/09 00:58:42;;;;;;;8.80;7.57;;;;;;;;;;4968281;28;20265;-66
2023/04/09 01:01:10;;;;;;;7.43;6.47;;;;;;;;;;4961265;28;20208;-65
2023/04/09 01:03:39;;;;;;;6.45;5.85;;;;;;;;;;4955619;28;20215;-65
2023/04/09 01:06:09;;;;;;;9.57;7.20;;;;;;;;;;4947558;29;20211;-66
2023/04/09 01:08:42;;;;;;;8.13;7.25;;;;;;;;;;4963973;28;20203;-65
2023/04/09 01:11:16;;;;;;;8.15;6.38;;;;;;;;;;4939258;29;20200;-66
2023/04/09 01:13:50;;;;;;;7.13;6.43;;;;;;;;;;4954116;29;20199;-66
2023/04/09 01:16:19;;;;;;;8.25;7.03;;;;;;;;;;4953235;29;20331;-66
2023/04/09 01:18:50;;;;;;;7.07;6.38;;;;;;;;;;4953862;29;20218;-66
2023/04/09 01:21:21;;;;;;;6.72;6.03;;;;;;;;;;4953618;29;20228;-68
2023/04/09 01:23:58;;;;;;;7.18;6.53;;;;;;;;;;4955515;29;20211;-66
2023/04/09 01:26:39;;;;;;;8.57;6.78;;;;;;;;;;4946236;29;20277;-66
2023/04/09 01:29:09;;;;;;;7.45;6.60;;;;;;;;;;4937502;29;20198;-66
2023/04/09 01:31:38;;;;;;;7.40;6.65;;;;;;;;;;4921525;29;20250;-66
2023/04/09 01:34:08;;;;;;;7.82;6.95;;;;;;;;;;4937795;29;20214;-66
2023/04/09 01:36:38;;;;;;;12.15;7.38;;;;;;;;;;4954509;29;20230;-66
2023/04/09 01:39:07;;;;;;;8.75;7.15;;;;;;;;;;4954764;28;20212;-66
2023/04/09 01:41:36;;;;;;;8.32;7.00;;;;;;;;;;4952928;28;20557;-66
2023/04/09 01:44:05;;;;;;;9.90;7.60;;;;;;;;;;4973372;28;20205;-66
2023/04/09 01:46:36;;;;;;;8.93;6.88;;;;;;;;;;4937388;29;20210;-66
2023/04/09 01:49:04;;;;;;;9.15;7.32;;;;;;;;;;4969789;28;20543;-66
2023/04/09 01:51:33;;;;;;;10.15;8.10;;;;;;;;;;4954282;28;20242;-66
2023/04/09 01:54:01;;;;;;;9.93;7.90;;;;;;;;;;4969342;28;20216;-67
2023/04/09 01:56:40;;;;;;;10.10;7.30;;;;;;;;;;4971264;28;20223;-66
2023/04/09 01:59:08;;;;;;;8.18;7.32;;;;;;;;;;4940406;28;20202;-66
2023/04/09 02:01:39;;;;;;;8.65;6.55;;;;;;;;;;4959109;28;20199;-66
2023/04/09 02:04:10;;;;;;;9.05;7.45;;;;;;;;;;4971541;28;20533;-66
2023/04/09 02:06:40;;;;;;;9.30;7.25;;;;;;;;;;4954488;28;20199;-66
2023/04/09 02:09:09;;;;;;;9.70;7.22;;;;;;;;;;4963767;28;20682;-66
2023/04/09 02:11:38;;;;;;;8.25;7.35;;;;;;;;;;4958087;29;20581;-66
2023/04/09 02:14:08;;;;;;;9.10;7.60;;;;;;;;;;4967352;28;20206;-66
2023/04/09 02:16:38;;;;;;;8.80;7.30;;;;;;;;;;4976854;28;20230;-66
2023/04/09 02:19:06;;;;;;;8.80;6.85;;;;;;;;;;4962628;28;20262;-66
2023/04/09 02:21:34;;;;;;;8.60;7.18;;;;;;;;;;4975698;28;20206;-66
2023/04/09 02:24:02;;;;;;;10.25;7.78;;;;;;;;;;4972236;28;20207;-67
2023/04/09 02:26:30;;;;;;;9.15;7.60;;;;;;;;;;4937475;29;20208;-67
2023/04/09 02:29:00;;;;;;;7.80;7.00;;;;;;;;;;4945455;29;20202;-66
2023/04/09 02:31:28;;;;;;;12.32;7.80;;;;;;;;;;4956829;29;20204;-66
2023/04/09 02:33:57;;;;;;;8.43;7.50;;;;;;;;;;4957641;29;20219;-66
2023/04/09 02:36:26;;;;;;;10.50;7.82;;;;;;;;;;4957033;28;20230;-66
2023/04/09 02:38:54;;;;;;;10.30;8.40;;;;;;;;;;4956312;29;20212;-66
2023/04/09 02:41:23;;;;;;;9.15;8.20;;;;;;;;;;4950406;29;20214;-67
2023/04/09 02:43:51;;;;;;;8.88;7.97;;;;;;;;;;4940366;29;20203;-69
2023/04/09 02:46:19;;;;;;;8.20;7.40;;;;;;;;;;4957087;29;20204;-66
2023/04/09 02:48:49;;;;;;;10.82;8.35;;;;;;;;;;4940852;29;20207;-67
2023/04/09 02:51:18;;;;;;;12.07;8.80;;;;;;;;;;4956689;29;20718;-66
2023/04/09 02:53:47;;;;;;;11.35;8.32;;;;;;;;;;4940874;29;20218;-66
2023/04/09 02:56:15;;;;;;;11.55;8.38;;;;;;;;;;4940292;29;20211;-66
2023/04/09 02:58:43;;;;;;;10.95;8.40;;;;;;;;;;4940675;29;20258;-66
2023/04/09 03:01:12;;;;;;;11.75;8.55;;;;;;;;;;4939299;29;20212;-66
2023/04/09 03:03:40;;;;;;;10.35;8.15;;;;;;;;;;4955895;29;20210;-66
2023/04/09 03:06:09;;;;;;;11.45;8.80;;;;;;;;;;4939641;29;20203;-66
2023/04/09 03:08:39;;;;;;;9.93;8.00;;;;;;;;;;4940401;29;20208;-66
2023/04/09 03:11:07;;;;;;;11.32;9.10;;;;;;;;;;4956555;29;20215;-65
2023/04/09 03:13:35;;;;;;;11.95;9.30;;;;;;;;;;4956967;29;20266;-65
2023/04/09 03:16:03;;;;;;;12.23;8.57;;;;;;;;;;4954737;29;20214;-65
2023/04/09 03:18:31;;;;;;;11.60;8.40;;;;;;;;;;4956845;29;20230;-65
2023/04/09 03:21:00;;;;;;;9.90;8.40;;;;;;;;;;4955725;28;20660;-65
2023/04/09 03:23:33;;;;;;;10.25;8.60;;;;;;;;;;4953948;29;20196;-66
2023/04/09 03:26:04;;;;;;;12.38;8.15;;;;;;;;;;4923460;29;20200;-66
2023/04/09 03:28:36;;;;;;;9.68;7.47;;;;;;;;;;4939674;29;20202;-65
2023/04/09 03:31:05;;;;;;;11.30;9.10;;;;;;;;;;4939770;29;20645;-65
2023/04/09 03:33:37;;;;;;;9.60;7.85;;;;;;;;;;4923797;29;20192;-64
2023/04/09 03:36:05;;;;;;;12.07;8.45;;;;;;;;;;4938669;29;20319;-65
2023/04/09 03:38:48;;;;;;;10.75;7.30;;;;;;;;;;4939251;29;20584;-65
2023/04/09 03:41:36;;;;;;;13.15;8.43;;;;;;;;;;4956930;29;20192;-64
2023/04/09 03:44:07;;;;;;;12.77;9.55;;;;;;;;;;4938893;29;20227;-65
2023/04/09 03:46:56;;;;;;;13.70;10.13;;;;;;;;;;4939246;29;20204;-64
2023/04/09 03:49:25;;;;;;;13.02;9.20;;;;;;;;;;4938475;29;20214;-66
2023/04/09 03:51:55;;;;;;;11.25;9.20;;;;;;;;;;4938806;29;20244;-65
2023/04/09 03:54:25;;;;;;;10.95;9.05;;;;;;;;;;4938386;29;20210;-65
2023/04/09 03:56:56;;;;;;;11.93;9.70;;;;;;;;;;4941043;29;20220;-65
2023/04/09 03:59:25;;;;;;;12.85;8.93;;;;;;;;;;4947428;28;20195;-66
2023/04/09 04:01:54;;;;;;;13.98;8.88;;;;;;;;;;4953554;28;20593;-65
2023/04/09 04:04:22;;;;;;;12.93;8.68;;;;;;;;;;4956453;28;20211;-67
2023/04/09 04:06:56;;;;;;;11.43;9.70;;;;;;;;;;4957786;28;20221;-66
2023/04/09 04:09:27;;;;;;;11.73;8.85;;;;;;;;;;4944702;29;20270;-65
2023/04/09 04:12:05;;;;;;;11.18;9.52;;;;;;;;;;4952570;28;20198;-65
2023/04/09 04:14:56;;;;;;;11.15;9.40;;;;;;;;;;4949686;28;20266;-65
2023/04/09 04:17:32;;;;;;;13.93;9.52;;;;;;;;;;4957189;28;20203;-65
2023/04/09 04:20:02;;;;;;;14.07;10.40;;;;;;;;;;4956750;28;20226;-66
2023/04/09 04:22:35;;;;;;;11.98;9.60;;;;;;;;;;4942767;29;20202;-65
2023/04/09 04:25:05;;;;;;;13.57;9.38;;;;;;;;;;4938560;28;20203;-65
2023/04/09 04:27:35;;;;;;;14.90;10.20;;;;;;;;;;4957769;28;20199;-66
2023/04/09 04:30:03;;;;;;;12.93;9.10;;;;;;;;;;4954853;28;20558;-65
2023/04/09 04:32:44;;;;;;;12.63;9.95;;;;;;;;;;4942053;29;20198;-65
2023/04/09 04:35:13;;;;;;;11.20;9.77;;;;;;;;;;4954801;29;20266;-65
2023/04/09 04:37:42;;;;;;;14.85;10.00;;;;;;;;;;4937722;29;20250;-66
2023/04/09 04:40:11;;;;;;;12.88;8.93;;;;;;;;;;4954520;29;20218;-65
2023/04/09 04:42:44;;;;;;;11.38;8.32;;;;;;;;;;4938061;29;20194;-65
2023/04/09 04:45:16;;;;;;;11.38;8.90;;;;;;;;;;4952474;29;20196;-65
2023/04/09 04:47:51;;;;;;;10.85;8.65;;;;;;;;;;4954414;29;20198;-65
2023/04/09 04:50:19;;;;;;;15.38;9.18;;;;;;;;;;4953917;29;20219;-66
2023/04/09 04:52:56;;;;;;;9.50;7.72;;;;;;;;;;4953447;29;20214;-65
2023/04/09 04:55:29;;;;;;;13.60;9.50;;;;;;;;;;4954022;29;20603;-65
2023/04/09 04:57:59;;;;;;;12.48;8.77;;;;;;;;;;4956462;28;20223;-66
2023/04/09 05:00:31;;;;;;;13.32;9.13;;;;;;;;;;4951912;29;20563;-66
2023/04/09 05:03:02;;;;;;;11.10;8.88;;;;;;;;;;4949868;28;20203;-66
2023/04/09 05:05:46;;;;;;;12.75;8.60;;;;;;;;;;4952200;28;20717;-65
2023/04/09 05:08:14;;;;;;;11.40;8.85;;;;;;;;;;4947655;28;20223;-66
2023/04/09 05:10:44;;;;;;;13.95;8.95;;;;;;;;;;4950451;29;20207;-66
2023/04/09 05:13:14;;;;;;;12.73;9.50;;;;;;;;;;4939410;28;20222;-66
2023/04/09 05:15:43;;;;;;;12.00;9.13;;;;;;;;;;4971927;28;20713;-66
2023/04/09 05:18:12;;;;;;;13.95;9.20;;;;;;;;;;4943781;28;20228;-66
2023/04/09 05:20:41;;;;;;;11.20;9.07;;;;;;;;;;4942168;29;20289;-66
2023/04/09 05:23:11;;;;;;;13.23;8.75;;;;;;;;;;4942046;29;20204;-67
2023/04/09 05:25:43;;;;;;;12.40;9.70;;;;;;;;;;4941406;29;20226;-66
2023/04/09 05:28:29;;;;;;;12.00;9.30;;;;;;;;;;4918074;29;20201;-66
2023/04/09 05:31:11;;;;;;;13.40;10.00;;;;;;;;;;4930898;29;20289;-66
2023/04/09 05:33:42;;;;;;;12.77;9.27;;;;;;;;;;4961812;28;20202;-68
2023/04/09 05:36:17;;;;;;;12.75;9.25;;;;;;;;;;4940433;29;20214;-66
2023/04/09 05:38:47;;;;;;;16.52;8.85;;;;;;;;;;4953065;29;20227;-66
2023/04/09 05:41:15;;;;;;;12.70;9.73;;;;;;;;;;4945156;28;20211;-66
2023/04/09 05:43:57;;;;;;;11.75;8.98;;;;;;;;;;4936319;29;20214;-67
2023/04/09 05:46:26;;;;;;;13.15;9.95;;;;;;;;;;4936828;29;20200;-67
2023/04/09 05:48:54;;;;;;;11.43;9.15;;;;;;;;;;4937170;29;20203;-67
2023/04/09 05:51:24;;;;;;;14.27;10.15;;;;;;;;;;4948343;28;20242;-66
2023/04/09 05:53:52;;;;;;;11.70;9.00;;;;;;;;;;4930907;29;20205;-65
2023/04/09 05:56:22;;;;;;;12.60;9.73;;;;;;;;;;4957932;28;20527;-65
2023/04/09 05:58:54;;;;;;;12.55;9.02;;;;;;;;;;4955586;28;20274;-65
2023/04/09 06:01:24;;;;;;;13.40;9.65;;;;;;;;;;4961049;28;20207;-67
2023/04/09 06:03:52;;;;;;;11.73;9.52;;;;;;;;;;4955253;28;20204;-67
2023/04/09 06:06:20;;;;;;;12.82;9.80;;;;;;;;;;4953376;29;20203;-66
2023/04/09 06:08:48;;;;;;;14.27;9.13;;;;;;;;;;4955297;28;20200;-66
2023/04/09 06:11:17;;;;;;;13.98;9.60;;;;;;;;;;4945687;28;20214;-66
2023/04/09 06:13:45;;;;;;;13.32;9.50;;;;;;;;;;4943708;28;20206;-66
2023/04/09 06:16:14;;;;;;;14.48;10.35;;;;;;;;;;4963263;28;20200;-66
2023/04/09 06:18:45;;;;;;;17.77;9.25;;;;;;;;;;4956440;28;20226;-67
2023/04/09 06:21:13;;;;;;;14.35;10.02;;;;;;;;;;4960239;28;20301;-65
2023/04/09 06:23:42;;;;;;;18.33;10.88;;;;;;;;;;4959534;28;20207;-66
2023/04/09 06:26:10;;;;;;;10.43;8.65;;;;;;;;;;4955825;28;20219;-66
2023/04/09 06:28:38;;;;;;;14.80;10.65;;;;;;;;;;4936902;28;20206;-65
2023/04/09 06:31:06;;;;;;;18.52;10.45;;;;;;;;;;4957556;28;20229;-65
2023/04/09 06:33:35;;;;;;;14.52;10.77;;;;;;;;;;4962412;28;20207;-64
2023/04/09 06:36:04;;;;;;;14.15;10.10;;;;;;;;;;4941154;28;20663;-66
2023/04/09 06:38:32;;;;;;;13.80;9.52;;;;;;;;;;4954865;28;20587;-66
2023/04/09 06:41:01;;;;;;;17.48;11.23;;;;;;;;;;4953662;29;20592;-65
2023/04/09 06:43:29;;;;;;;13.45;10.98;;;;;;;;;;4937502;28;20207;-65
2023/04/09 06:45:57;;;;;;;17.08;11.65;;;;;;;;;;4953691;29;20208;-65
2023/04/09 06:48:25;;;;;;;14.93;10.45;;;;;;;;;;4936540;28;20539;-65
2023/04/09 06:50:54;;;;;;;16.00;11.23;;;;;;;;;;4954777;28;20232;-68
2023/04/09 06:53:23;;;;;;;15.02;11.50;;;;;;;;;;4953112;29;20214;-67
2023/04/09 06:55:51;;;;;;;16.70;11.93;;;;;;;;;;4958610;28;20202;-69
2023/04/09 06:58:20;;;;;;;15.82;11.27;;;;;;;;;;4959178;28;20224;-65
2023/04/09 07:00:48;;;;;;;17.73;12.43;;;;;;;;;;4970790;28;20204;-66
2023/04/09 07:03:17;;;;;;;21.10;14.02;;;;;;;;;;4964104;28;20200;-65
2023/04/09 07:05:45;;;;;;;18.52;12.65;;;;;;;;;;4958036;28;20207;-66
2023/04/09 07:08:13;;;;;;;17.27;11.95;;;;;;;;;;4957040;28;20211;-65
2023/04/09 07:10:43;;;;;;;21.83;13.95;;;;;;;;;;4939854;29;20222;-65
2023/04/09 07:13:11;;;;;;;19.52;13.43;;;;;;;;;;4958256;28;20204;-66
2023/04/09 07:15:39;;;;;;;21.20;13.35;;;;;;;;;;4959284;28;20257;-65
2023/04/09 07:18:07;;;;;;;18.45;13.25;;;;;;;;;;4957691;28;20211;-65
2023/04/09 07:20:36;;;;;;;17.42;13.95;;;;;;;;;;4960878;28;20256;-65
2023/04/09 07:23:04;;;;;;;19.42;12.70;;;;;;;;;;4953492;28;20681;-65
2023/04/09 07:25:32;;;;;;;25.20;14.82;;;;;;;;;;4950041;29;20208;-65
2023/04/09 07:28:02;;;;;;;19.23;13.63;;;;;;;;;;4956925;28;20208;-65
2023/04/09 07:30:30;;;;;;;17.75;13.35;;;;;;;;;;4951242;28;20226;-65
2023/04/09 07:32:58;;;;;;;22.10;15.65;;;;;;;;;;4955413;29;20218;-65
2023/04/09 07:35:27;;;;;;;16.13;12.85;;;;;;;;;;4969562;28;20204;-65
2023/04/09 07:37:56;;;;;;;17.95;13.90;;;;;;;;;;4974895;28;20245;-65
2023/04/09 07:40:24;;;;;;;17.25;13.50;;;;;;;;;;4972305;28;20219;-64
2023/04/09 07:42:54;;;;;;;19.38;14.10;;;;;;;;;;4974994;28;20666;-65
2023/04/09 07:45:24;;;;;;;18.25;14.10;;;;;;;;;;4972856;28;20214;-66
2023/04/09 07:47:52;;;;;;;20.83;13.57;;;;;;;;;;4951783;28;20203;-67
2023/04/09 07:50:21;;;;;;;20.85;14.95;;;;;;;;;;4955485;29;20242;-64
2023/04/09 07:52:50;;;;;;;18.02;14.57;;;;;;;;;;4955839;29;20200;-65
2023/04/09 07:55:19;;;;;;;17.80;14.07;;;;;;;;;;4955933;29;20215;-65
2023/04/09 07:57:47;;;;;;;19.75;14.82;;;;;;;;;;4956182;28;20226;-65
2023/04/09 08:00:16;;;;;;;18.45;14.30;;;;;;;;;;4954067;28;20231;-65
2023/04/09 08:02:46;;;;;;;17.48;13.95;;;;;;;;;;4954785;28;20220;-65
2023/04/09 08:05:14;;;;;;;18.67;14.93;;;;;;;;;;4953569;28;20243;-65
2023/04/09 08:07:43;;;;;;;18.95;15.15;;;;;;;;;;4955118;29;20208;-65
2023/04/09 08:10:14;;;;;;;17.23;14.02;;;;;;;;;;4953932;28;20585;-66
2023/04/09 08:12:42;;;;;;;17.85;14.27;;;;;;;;;;4948950;29;20200;-66
2023/04/09 08:15:10;;;;;;;15.73;13.32;;;;;;;;;;4954754;29;20304;-67
2023/04/09 08:17:39;;;;;;;20.48;14.93;;;;;;;;;;4954922;28;20200;-67
2023/04/09 08:20:09;;;;;;;17.48;13.93;;;;;;;;;;4967027;28;20285;-67
2023/04/09 08:22:39;;;;;;;18.88;13.98;;;;;;;;;;4962018;28;20193;-67
2023/04/09 08:25:08;;;;;;;21.23;15.50;;;;;;;;;;4961934;28;20199;-67
2023/04/09 08:27:36;;;;;;;23.83;14.20;;;;;;;;;;4952748;28;20204;-67
2023/04/09 08:30:05;;;;;;;18.15;14.50;;;;;;;;;;4953328;29;20731;-68
2023/04/09 08:32:34;;;;;;;19.77;15.02;;;;;;;;;;4951828;28;20204;-69
2023/04/09 08:35:02;;;;;;;17.65;14.90;;;;;;;;;;4961001;28;20211;-67
2023/04/09 08:37:33;;;;;;;14.60;13.07;;;;;;;;;;4937819;28;20204;-69
2023/04/09 08:40:01;;;;;;;17.23;14.40;;;;;;;;;;4955497;28;20750;-68
2023/04/09 08:42:31;;;;;;;16.48;14.52;;;;;;;;;;4954949;29;20219;-68
2023/04/09 08:44:59;;;;;;;16.13;12.98;;;;;;;;;;4961706;28;20207;-68
2023/04/09 08:47:28;;;;;;;18.10;13.80;;;;;;;;;;4943603;29;20705;-68
2023/04/09 08:49:56;;;;;;;15.88;12.38;;;;;;;;;;4955165;28;20669;-68
2023/04/09 08:52:31;;;;;;;14.93;13.18;;;;;;;;;;4918576;29;20196;-68
2023/04/09 08:55:01;;;;;;;14.57;12.93;;;;;;;;;;4934496;29;20207;-69
2023/04/09 08:57:30;;;;;;;17.75;14.10;;;;;;;;;;4938611;29;20205;-68
2023/04/09 09:00:00;;;;;;;17.67;15.52;;;;;;;;;;4944131;29;20212;-68
2023/04/09 09:02:30;;;;;;;15.98;14.10;;;;;;;;;;4935373;29;20271;-67
2023/04/09 09:04:59;;;;;;;14.98;12.68;;;;;;;;;;4935110;29;20204;-67
2023/04/09 09:07:28;;;;;;;14.73;12.82;;;;;;;;;;4934880;29;20568;-67
2023/04/09 09:09:57;;;;;;;15.60;13.60;;;;;;;;;;4941830;29;20199;-66
2023/04/09 09:12:34;;;;;;;16.10;12.80;;;;;;;;;;4942694;29;20565;-66
2023/04/09 09:15:02;;;;;;;16.48;13.82;;;;;;;;;;4933500;29;20642;-67
2023/04/09 09:17:33;;;;;;;14.83;11.77;;;;;;;;;;4948462;28;20204;-67
2023/04/09 09:20:19;;;;;;;15.57;13.43;;;;;;;;;;4952151;29;20704;-66
2023/04/09 09:22:50;;;;;;;16.70;12.43;;;;;;;;;;4953316;29;20204;-68
2023/04/09 09:25:22;;;;;;;14.13;12.60;;;;;;;;;;4946457;29;20613;-67
2023/04/09 09:27:51;;;;;;;13.00;11.70;;;;;;;;;;4918977;29;20591;-68
2023/04/09 09:30:23;;;;;;;13.30;11.97;;;;;;;;;;4934183;29;20620;-68
2023/04/09 09:32:55;;;;;;;13.23;11.93;;;;;;;;;;4952950;29;20588;-68
2023/04/09 09:35:23;;;;;;;13.17;11.57;;;;;;;;;;4952097;29;20650;-68
2023/04/09 09:38:02;;;;;;;12.60;11.37;;;;;;;;;;4947303;29;20609;-68
2023/04/09 09:40:31;;;;;;;11.47;9.80;;;;;;;;;;4933007;29;20989;-67
2023/04/09 09:43:00;;;;;;;11.70;10.60;;;;;;;;;;4915653;29;20981;-68
2023/04/09 09:45:29;;;;;;;11.50;10.47;;;;;;;;;;4923363;29;20658;-68
2023/04/09 09:47:58;;;;;;;11.93;10.83;;;;;;;;;;4946587;29;20617;-67
2023/04/09 09:50:27;;;;;;;11.83;10.77;;;;;;;;;;4943953;29;21019;-68
2023/04/09 09:52:59;;;;;;;10.70;9.80;;;;;;;;;;4933609;29;20583;-68
2023/04/09 09:55:28;;;;;;;12.13;11.10;;;;;;;;;;4934323;29;20654;-68
2023/04/09 09:57:57;;;;;;;11.23;10.13;;;;;;;;;;4933831;29;20683;-67
2023/04/09 10:00:27;;;;;;;12.23;11.20;;;;;;;;;;4935293;29;20671;-69
2023/04/09 10:02:58;;;;;;;11.43;10.50;;;;;;;;;;4931947;29;20615;-67
2023/04/09 10:05:27;;;;;;;10.00;9.20;;;;;;;;;;4946636;29;20607;-68
2023/04/09 10:07:58;;;;;;;11.63;10.63;;;;;;;;;;4938347;29;20625;-67
2023/04/09 10:10:26;;;;;;;12.07;11.03;;;;;;;;;;4948384;28;21145;-68
2023/04/09 10:12:55;;;;;;;11.80;10.80;;;;;;;;;;4933086;29;20902;-68
2023/04/09 10:15:23;;;;;;;10.07;9.27;;;;;;;;;;4933483;29;20599;-66
2023/04/09 10:17:53;;;;;;;11.40;10.60;;;;;;;;;;4934505;29;20591;-65
2023/04/09 10:20:24;;;;;;;12.30;11.23;;;;;;;;;;4946935;29;20648;-67
2023/04/09 10:22:53;;;;;;;11.73;10.83;;;;;;;;;;4942048;29;20619;-67
2023/04/09 10:25:21;;;;;;;11.90;10.90;;;;;;;;;;4934176;29;21224;-67
2023/04/09 10:27:59;;;;;;;11.83;10.90;;;;;;;;;;4946461;29;21061;-66
2023/04/09 10:30:34;;;;;;;12.40;11.27;;;;;;;;;;4936538;29;20559;-67
2023/04/09 10:33:11;;;;;;;12.60;11.57;;;;;;;;;;4952498;29;20625;-67
2023/04/09 10:35:39;;;;;;;14.03;12.83;;;;;;;;;;4956030;28;20591;-66
2023/04/09 10:38:09;;;;;;;12.60;11.60;;;;;;;;;;4954391;29;20681;-67
2023/04/09 10:40:41;;;;;;;13.33;12.23;;;;;;;;;;4955975;28;20629;-67
2023/04/09 10:43:10;;;;;;;13.23;12.13;;;;;;;;;;4952900;29;20608;-67
2023/04/09 10:45:42;;;;;;;14.10;12.87;;;;;;;;;;4936778;29;21174;-67
2023/04/09 10:48:15;;;;;;;12.47;11.27;;;;;;;;;;4938089;28;20633;-68
2023/04/09 10:50:44;;;;;;;14.00;12.70;;;;;;;;;;4943028;28;20663;-68
2023/04/09 10:53:22;;;;;;;12.83;11.63;;;;;;;;;;4956173;29;20611;-67
2023/04/09 10:55:51;;;;;;;13.23;12.17;;;;;;;;;;4961581;28;20596;-68
2023/04/09 10:58:20;;;;;;;12.40;11.40;;;;;;;;;;4967980;28;20631;-68
2023/04/09 11:00:49;;;;;;;11.10;10.20;;;;;;;;;;4966935;28;20645;-68
2023/04/09 11:03:22;;;;;;;10.50;9.70;;;;;;;;;;4960393;28;20598;-68
2023/04/09 11:05:59;;;;;;;11.10;10.30;;;;;;;;;;4961049;28;20599;-67
2023/04/09 11:08:29;;;;;;;9.97;9.37;;;;;;;;;;4965060;28;20608;-68
2023/04/09 11:10:59;;;;;;;10.63;9.70;;;;;;;;;;4960462;28;20580;-68
2023/04/09 11:13:28;;;;;;;10.03;9.43;;;;;;;;;;4955659;29;20590;-67
2023/04/09 11:15:56;;;;;;;10.73;10.03;;;;;;;;;;4939760;29;20613;-68
2023/04/09 11:18:27;;;;;;;11.70;10.87;;;;;;;;;;4956002;28;21203;-67
2023/04/09 11:20:55;;;;;;;11.37;10.47;;;;;;;;;;4961935;28;20716;-67
2023/04/09 11:23:24;;;;;;;11.40;10.50;;;;;;;;;;4973551;28;20597;-67
2023/04/09 11:25:54;;;;;;;10.70;10.00;;;;;;;;;;4958616;28;20602;-67
2023/04/09 11:28:22;;;;;;;9.33;8.73;;;;;;;;;;4965745;28;20639;-66
2023/04/09 11:30:51;;;;;;;11.13;10.33;;;;;;;;;;4960137;28;20597;-68
2023/04/09 11:33:19;;;;;;;11.50;10.70;;;;;;;;;;4974541;28;20574;-69
2023/04/09 11:35:49;;;;;;;11.47;10.57;;;;;;;;;;4970155;28;20765;-69
2023/04/09 11:38:18;;;;;;;11.97;10.97;;;;;;;;;;4937880;29;21039;-68
2023/04/09 11:40:47;;;;;;;9.83;9.13;;;;;;;;;;4955325;28;20644;-68
2023/04/09 11:43:16;;;;;;;10.87;10.07;;;;;;;;;;4954955;29;20990;-68
2023/04/09 11:45:46;;;;;;;9.70;9.00;;;;;;;;;;4955253;28;21235;-67
2023/04/09 11:48:16;;;;;;;10.50;9.80;;;;;;;;;;4956250;28;20614;-66
2023/04/09 11:50:45;;;;;;;10.43;9.80;;;;;;;;;;4954972;29;20628;-67
2023/04/09 11:53:19;;;;;;;10.70;9.90;;;;;;;;;;4954429;28;20632;-68
2023/04/09 11:55:48;;;;;;;10.33;9.73;;;;;;;;;;4955953;28;20622;-67
2023/04/09 11:58:16;;;;;;;11.50;10.70;;;;;;;;;;4961282;28;20626;-66
2023/04/09 12:00:45;;;;;;;10.30;9.70;;;;;;;;;;4974343;28;20662;-67
2023/04/09 12:03:14;;;;;;;9.77;9.17;;;;;;;;;;4972700;28;20605;-68
2023/04/09 12:05:46;;;;;;;9.33;8.73;;;;;;;;;;4973832;28;20970;-68
2023/04/09 12:08:15;;;;;;;9.80;9.30;;;;;;;;;;4964483;28;20952;-68
2023/04/09 12:10:45;;;;;;;9.97;9.30;;;;;;;;;;4973802;28;20592;-67
2023/04/09 12:13:15;;;;;;;9.80;9.20;;;;;;;;;;4958367;28;20627;-68
2023/04/09 12:15:43;;;;;;;10.67;9.97;;;;;;;;;;4954159;28;20601;-67
2023/04/09 12:18:12;;;;;;;9.83;9.13;;;;;;;;;;4956460;28;20606;-68
2023/04/09 12:20:41;;;;;;;11.00;10.20;;;;;;;;;;4954288;29;20690;-69
2023/04/09 12:23:09;;;;;;;9.80;9.20;;;;;;;;;;4937490;29;20615;-66
2023/04/09 12:25:39;;;;;;;10.10;9.40;;;;;;;;;;4954145;29;20626;-68
2023/04/09 12:28:09;;;;;;;8.67;8.23;;;;;;;;;;4954438;29;20921;-67
2023/04/09 12:30:37;;;;;;;9.90;9.30;;;;;;;;;;4954794;29;20942;-67
2023/04/09 12:33:05;;;;;;;8.90;8.40;;;;;;;;;;4937152;29;20607;-67
2023/04/09 12:35:34;;;;;;;9.97;9.30;;;;;;;;;;4954473;29;20582;-69
2023/04/09 12:38:03;;;;;;;10.93;10.17;;;;;;;;;;4953918;29;20604;-68
2023/04/09 12:40:32;;;;;;;10.23;9.63;;;;;;;;;;4954229;29;20590;-68
2023/04/09 12:43:00;;;;;;;11.73;10.93;;;;;;;;;;4954369;29;20644;-69
2023/04/09 12:45:30;;;;;;;10.60;9.90;;;;;;;;;;4952938;29;20600;-68
2023/04/09 12:47:58;;;;;;;12.27;11.37;;;;;;;;;;4954178;29;21140;-68
2023/04/09 12:50:27;;;;;;;9.73;9.13;;;;;;;;;;4953749;29;20680;-68
2023/04/09 12:52:55;;;;;;;10.03;9.43;;;;;;;;;;4953743;28;20594;-68
2023/04/09 12:55:23;;;;;;;9.90;9.40;;;;;;;;;;4953383;29;20590;-68
2023/04/09 12:57:51;;;;;;;10.50;9.90;;;;;;;;;;4954313;29;20631;-68
2023/04/09 13:00:20;;;;;;;10.30;9.70;;;;;;;;;;4953480;29;21182;-65
2023/04/09 13:02:51;;;;;;;11.40;10.70;;;;;;;;;;4952877;29;20692;-67
2023/04/09 13:05:21;;;;;;;10.27;9.67;;;;;;;;;;4953953;29;20938;-67
2023/04/09 13:07:49;;;;;;;9.83;9.33;;;;;;;;;;4953121;29;20631;-68
2023/04/09 13:10:17;;;;;;;9.97;9.37;;;;;;;;;;4921097;29;20626;-68
2023/04/09 13:12:45;;;;;;;11.03;10.33;;;;;;;;;;4952755;29;20620;-68
2023/04/09 13:15:13;;;;;;;10.23;9.53;;;;;;;;;;4953803;29;20616;-68
2023/04/09 13:17:42;;;;;;;10.10;9.40;;;;;;;;;;4935972;29;20639;-68
2023/04/09 13:20:12;;;;;;;8.77;8.37;;;;;;;;;;4953389;29;20616;-68
2023/04/09 13:22:40;;;;;;;8.77;8.37;;;;;;;;;;4952687;29;20667;-67
2023/04/09 13:25:08;;;;;;;9.90;9.30;;;;;;;;;;4952711;29;21007;-68
2023/04/09 13:27:36;;;;;;;9.40;8.90;;;;;;;;;;4935934;29;20952;-68
2023/04/09 13:30:05;;;;;;;9.03;8.63;;;;;;;;;;4953316;29;20659;-67
2023/04/09 13:32:33;;;;;;;10.53;9.73;;;;;;;;;;4953876;28;20986;-68
2023/04/09 13:35:01;;;;;;;9.87;9.40;;;;;;;;;;4952823;28;20976;-67
2023/04/09 13:37:31;;;;;;;10.23;9.73;;;;;;;;;;4966239;28;21027;-68
2023/04/09 13:39:59;;;;;;;11.07;10.47;;;;;;;;;;4972503;28;21188;-68
2023/04/09 13:42:28;;;;;;;10.53;9.83;;;;;;;;;;4957893;28;20669;-67
2023/04/09 13:44:56;;;;;;;10.40;9.80;;;;;;;;;;4952643;28;21217;-67
2023/04/09 13:47:24;;;;;;;12.30;11.50;;;;;;;;;;4949733;28;20728;-67
2023/04/09 13:49:52;;;;;;;11.13;10.43;;;;;;;;;;4966840;28;20991;-67
2023/04/09 13:52:21;;;;;;;11.27;10.63;;;;;;;;;;4953182;28;20713;-68
2023/04/09 13:54:52;;;;;;;10.83;10.33;;;;;;;;;;4955242;28;21010;-67
2023/04/09 13:57:20;;;;;;;11.70;11.00;;;;;;;;;;4958880;28;20622;-68
2023/04/09 13:59:48;;;;;;;10.47;9.97;;;;;;;;;;4952714;29;20630;-68
2023/04/09 14:02:17;;;;;;;10.70;9.90;;;;;;;;;;4952530;28;20667;-68
2023/04/09 14:04:46;;;;;;;11.43;10.80;;;;;;;;;;4956530;28;20690;-68
2023/04/09 14:07:14;;;;;;;10.73;10.23;;;;;;;;;;4960873;28;20623;-68
2023/04/09 14:09:42;;;;;;;10.60;10.10;;;;;;;;;;4954637;28;20619;-66
2023/04/09 14:12:12;;;;;;;10.10;9.70;;;;;;;;;;4972231;28;20976;-67
2023/04/09 14:14:42;;;;;;;10.17;9.67;;;;;;;;;;4965319;28;20605;-68
2023/04/09 14:17:10;;;;;;;10.87;10.37;;;;;;;;;;4971885;28;20618;-69
2023/04/09 14:19:39;;;;;;;10.90;10.37;;;;;;;;;;4967356;28;21002;-68
2023/04/09 14:22:07;;;;;;;10.30;9.60;;;;;;;;;;4936577;28;20635;-68
2023/04/09 14:24:38;;;;;;;10.60;10.10;;;;;;;;;;4951568;28;21181;-68
2023/04/09 14:27:07;;;;;;;10.90;10.30;;;;;;;;;;4959069;28;20610;-68
2023/04/09 14:29:36;;;;;;;10.77;10.30;;;;;;;;;;4944114;29;21049;-68
2023/04/09 14:32:05;;;;;;;10.80;10.30;;;;;;;;;;4949989;28;21038;-68
2023/04/09 14:34:33;;;;;;;9.80;9.40;;;;;;;;;;4950445;28;20611;-68
2023/04/09 14:37:01;;;;;;;10.47;9.97;;;;;;;;;;4934372;29;20639;-67
2023/04/09 14:39:30;;;;;;;10.27;9.87;;;;;;;;;;4939096;29;20631;-68
2023/04/09 14:41:58;;;;;;;10.13;9.67;;;;;;;;;;4951746;28;20624;-67
2023/04/09 14:44:26;;;;;;;10.10;9.60;;;;;;;;;;4952609;29;20623;-68